Time;durP1;ratioP1;P1;durP2;ratioP2;P2;SDS_P1;SDS_P2;PMS_P1;PMS_P2;Temp;Humidity;BMP_temperature;BMP_pressure;BME280_temperature;BME280_humidity;BME280_pressure;Samples;Min_cycle;Max_cycle;Signal;HPM_P1;HPM_P2
2021/08/18 00:02:05;;;;;;;2.02;1.10;;;;;;;20.42;67.37;99264.06;1675062;83;21064;-52
2021/08/18 00:04:32;;;;;;;2.58;1.00;;;;;;;20.41;67.45;99261.00;1669056;83;21729;-52
2021/08/18 00:06:59;;;;;;;1.72;1.27;;;;;;;20.40;67.55;99268.34;1669029;83;21102;-52
2021/08/18 00:09:25;;;;;;;3.87;0.90;;;;;;;20.38;67.58;99272.58;1709961;81;21113;-53
2021/08/18 00:11:52;;;;;;;1.65;1.02;;;;;;;20.36;67.72;99270.49;1705933;81;22167;-53
2021/08/18 00:14:20;;;;;;;3.52;0.78;;;;;;;20.36;67.77;99269.63;1707250;81;21585;-52
2021/08/18 00:16:46;;;;;;;1.65;0.93;;;;;;;20.34;67.88;99268.41;1708279;81;21507;-53
2021/08/18 00:19:16;;;;;;;1.40;0.80;;;;;;;20.36;68.00;99276.46;1716431;81;21057;-53
2021/08/18 00:21:43;;;;;;;2.37;0.90;;;;;;;20.36;68.12;99276.46;1702029;81;21057;-55
2021/08/18 00:24:09;;;;;;;1.32;0.90;;;;;;;20.34;68.20;99276.60;1702348;82;21091;-52
2021/08/18 00:26:35;;;;;;;3.35;1.15;;;;;;;20.36;68.29;99284.16;1697435;82;21085;-54
2021/08/18 00:29:03;;;;;;;4.40;1.20;;;;;;;20.38;68.29;99282.66;1710916;82;21024;-55
2021/08/18 00:31:30;;;;;;;1.65;1.10;;;;;;;20.38;68.39;99282.16;1702794;82;21077;-55
2021/08/18 00:33:56;;;;;;;1.80;1.02;;;;;;;20.39;68.49;99283.02;1624555;84;21104;-55
2021/08/18 00:36:24;;;;;;;1.82;1.32;;;;;;;20.41;68.57;99281.00;1663272;83;21073;-52
2021/08/18 00:38:51;;;;;;;1.60;0.90;;;;;;;20.44;68.62;99278.45;1712728;82;21086;-54
2021/08/18 00:41:18;;;;;;;1.77;0.88;;;;;;;20.44;68.67;99280.69;1701074;82;21093;-52
2021/08/18 00:43:46;;;;;;;1.00;0.90;;;;;;;20.47;68.73;99275.44;1699335;82;21089;-53
2021/08/18 00:46:12;;;;;;;1.10;1.00;;;;;;;20.50;68.81;99288.83;1699925;82;21026;-52
2021/08/18 00:48:38;;;;;;;1.72;1.00;;;;;;;20.53;68.80;99288.50;1714823;82;21918;-53
2021/08/18 00:51:05;;;;;;;1.85;1.07;;;;;;;20.53;68.80;99289.38;1705491;82;20903;-55
2021/08/18 00:53:34;;;;;;;1.30;1.20;;;;;;;20.55;68.80;99286.49;1708827;82;21078;-55
2021/08/18 00:56:00;;;;;;;1.85;1.00;;;;;;;20.57;68.85;99284.48;1666479;83;21049;-52
2021/08/18 00:58:28;;;;;;;3.17;1.00;;;;;;;20.57;68.82;99282.61;1667506;84;22616;-53
2021/08/18 01:00:56;;;;;;;1.82;1.00;;;;;;;20.56;68.86;99282.25;1661768;84;21110;-54
2021/08/18 01:03:24;;;;;;;3.72;1.07;;;;;;;20.57;68.91;99280.38;1660628;84;21570;-52
2021/08/18 01:05:50;;;;;;;1.27;0.82;;;;;;;20.56;68.96;99277.28;1675098;84;20949;-52
2021/08/18 01:08:17;;;;;;;1.40;1.00;;;;;;;20.57;69.07;99280.38;1663144;83;21066;-55
2021/08/18 01:10:45;;;;;;;2.20;1.05;;;;;;;20.58;69.18;99280.73;1695773;82;20953;-54
2021/08/18 01:13:12;;;;;;;2.15;1.20;;;;;;;20.59;69.27;99289.27;1700240;82;21890;-53
2021/08/18 01:15:38;;;;;;;2.47;1.22;;;;;;;20.59;69.45;99287.91;1664562;83;21429;-54
2021/08/18 01:18:06;;;;;;;1.30;1.20;;;;;;;20.58;69.52;99287.58;1664077;83;21433;-54
2021/08/18 01:20:42;;;;;;;4.50;1.00;;;;;;;20.58;69.62;99287.58;1699711;82;21443;-54
2021/08/18 01:23:12;;;;;;;1.72;1.00;;;;;;;20.58;69.77;99287.58;1702331;82;20978;-53
2021/08/18 01:25:41;;;;;;;2.30;0.95;;;;;;;20.59;69.90;99287.91;1707496;82;21048;-54
2021/08/18 01:28:08;;;;;;;1.55;1.00;;;;;;;20.59;70.02;99287.40;1666937;84;21094;-54
2021/08/18 01:30:35;;;;;;;2.02;0.90;;;;;;;20.60;70.20;99283.66;1699146;82;21084;-54
2021/08/18 01:33:06;;;;;;;2.08;1.25;;;;;;;20.61;70.31;99284.02;1706617;82;21067;-54
2021/08/18 01:35:36;;;;;;;1.10;1.00;;;;;;;20.62;70.42;99282.15;1702826;82;21125;-54
2021/08/18 01:38:06;;;;;;;1.50;1.40;;;;;;;20.62;70.49;99276.68;1698687;82;22227;-54
2021/08/18 01:40:32;;;;;;;1.67;1.20;;;;;;;20.61;70.59;99277.69;1701049;82;21140;-53
2021/08/18 01:43:00;;;;;;;1.98;1.00;;;;;;;20.60;70.68;99280.92;1699278;82;21089;-54
2021/08/18 01:45:34;;;;;;;1.82;1.00;;;;;;;20.60;70.81;99267.76;1700625;82;21037;-54
2021/08/18 01:48:12;;;;;;;1.52;1.30;;;;;;;20.59;70.92;99267.39;1700263;82;21085;-55
2021/08/18 01:50:40;;;;;;;1.77;1.10;;;;;;;20.59;71.07;99263.30;1700680;82;21156;-54
2021/08/18 01:53:06;;;;;;;2.65;1.45;;;;;;;20.59;71.25;99268.77;1697152;82;21160;-54
2021/08/18 01:55:35;;;;;;;4.45;2.42;;;;;;;20.57;71.39;99260.73;1700456;82;21064;-55
2021/08/18 01:58:03;;;;;;;3.42;1.87;;;;;;;20.58;71.54;99261.60;1700164;82;21084;-55
2021/08/18 02:00:30;;;;;;;2.42;2.20;;;;;;;20.59;71.64;99278.33;1705665;82;21030;-54
2021/08/18 02:02:56;;;;;;;4.40;1.92;;;;;;;20.58;71.73;99269.30;1700877;82;22226;-55
2021/08/18 02:05:26;;;;;;;3.08;2.22;;;;;;;20.57;71.81;99265.34;1702776;82;21646;-53
2021/08/18 02:07:53;;;;;;;4.05;1.92;;;;;;;20.54;71.91;99262.89;1702736;82;21164;-55
2021/08/18 02:10:20;;;;;;;4.62;1.82;;;;;;;20.53;72.02;99251.59;1716757;82;20961;-52
2021/08/18 02:12:47;;;;;;;1.98;1.47;;;;;;;20.51;72.14;99240.80;1706822;82;20963;-55
2021/08/18 02:15:17;;;;;;;3.00;1.22;;;;;;;20.50;72.31;99230.87;1663726;83;21456;-54
2021/08/18 02:17:45;;;;;;;1.67;1.25;;;;;;;20.49;72.40;99244.22;1700057;82;21369;-52
2021/08/18 02:20:16;;;;;;;4.17;2.08;;;;;;;20.49;72.50;99255.16;1699263;82;20884;-54
2021/08/18 02:22:42;;;;;;;2.12;1.20;;;;;;;20.50;72.54;99256.02;1670910;83;21005;-55
2021/08/18 02:25:09;;;;;;;2.27;1.40;;;;;;;20.53;72.56;99258.44;1713628;81;20938;-55
2021/08/18 02:27:38;;;;;;;1.17;1.00;;;;;;;20.55;72.59;99263.25;1710683;81;20923;-55
2021/08/18 02:30:05;;;;;;;1.65;1.30;;;;;;;20.55;72.56;99270.09;1676028;83;21058;-54
2021/08/18 02:32:32;;;;;;;1.92;1.35;;;;;;;20.53;72.57;99266.12;1675735;83;21396;-52
2021/08/18 02:34:58;;;;;;;3.45;1.55;;;;;;;20.53;72.59;99270.73;1676519;83;20890;-53
2021/08/18 02:37:24;;;;;;;1.98;1.10;;;;;;;20.51;72.63;99268.14;1679722;83;21447;-53
2021/08/18 02:39:51;;;;;;;2.37;1.12;;;;;;;20.50;72.72;99260.12;1708759;81;21464;-53
2021/08/18 02:42:18;;;;;;;1.80;1.20;;;;;;;20.48;72.76;99261.63;1711970;81;21369;-54
2021/08/18 02:44:46;;;;;;;1.12;0.90;;;;;;;20.47;72.85;99259.03;1710782;81;21381;-54
2021/08/18 02:47:13;;;;;;;1.95;1.07;;;;;;;20.46;72.95;99262.77;1673909;83;20883;-54
2021/08/18 02:49:41;;;;;;;1.62;0.95;;;;;;;20.46;73.00;99266.88;1673405;83;20910;-54
2021/08/18 02:52:07;;;;;;;3.20;1.52;;;;;;;20.47;73.07;99264.00;1706606;81;21567;-53
2021/08/18 02:54:34;;;;;;;1.30;1.20;;;;;;;20.48;73.08;99262.13;1712877;81;21093;-53
2021/08/18 02:57:00;;;;;;;1.85;1.12;;;;;;;20.49;73.09;99255.66;1705436;81;21081;-53
2021/08/18 02:59:28;;;;;;;5.20;1.37;;;;;;;20.49;73.12;99256.52;1712274;81;21071;-52
2021/08/18 03:01:55;;;;;;;1.17;1.07;;;;;;;20.48;73.16;99263.50;1707507;81;21159;-53
2021/08/18 03:04:21;;;;;;;2.52;1.47;;;;;;;20.46;73.17;99270.98;1673283;83;21084;-52
2021/08/18 03:06:48;;;;;;;1.72;1.00;;;;;;;20.45;73.25;99276.95;1711591;81;21046;-53
2021/08/18 03:09:14;;;;;;;3.98;1.00;;;;;;;20.46;73.32;99281.91;1706621;81;21069;-55
2021/08/18 03:11:40;;;;;;;2.17;1.20;;;;;;;20.46;73.39;99283.28;1703196;81;21072;-53
2021/08/18 03:14:06;;;;;;;1.30;1.10;;;;;;;20.47;73.45;99282.27;1716333;81;21078;-55
2021/08/18 03:16:33;;;;;;;1.17;1.07;;;;;;;20.48;73.50;99286.23;1713099;81;22327;-54
2021/08/18 03:18:59;;;;;;;4.03;1.40;;;;;;;20.52;73.50;99289.52;1708878;81;21093;-53
2021/08/18 03:21:26;;;;;;;2.52;1.65;;;;;;;20.52;73.46;99287.64;1709893;81;21057;-54
2021/08/18 03:23:53;;;;;;;3.67;1.70;;;;;;;20.52;73.43;99285.41;1710121;81;21498;-53
2021/08/18 03:26:21;;;;;;;2.27;1.80;;;;;;;20.48;73.42;99282.63;1709175;81;21433;-55
2021/08/18 03:28:49;;;;;;;1.50;1.20;;;;;;;20.46;73.44;99284.64;1676062;83;21427;-53
2021/08/18 03:31:17;;;;;;;1.57;1.47;;;;;;;20.44;73.47;99288.02;1674638;83;21467;-55
2021/08/18 03:36:34;;;;;;;1.30;1.10;;;;;;;20.46;73.63;99296.95;1775486;78;28128;-53
2021/08/18 03:39:02;;;;;;;2.47;1.72;;;;;;;20.39;73.71;99303.02;1737706;80;21001;-52
2021/08/18 03:41:29;;;;;;;2.00;1.80;;;;;;;20.37;73.80;99302.29;1697832;81;21615;-51
2021/08/18 03:43:55;;;;;;;1.90;1.20;;;;;;;20.34;73.92;99297.11;1701440;81;21498;-53
2021/08/18 03:46:21;;;;;;;2.00;1.37;;;;;;;20.32;74.02;99300.98;1703662;81;21092;-55
2021/08/18 03:48:48;;;;;;;3.30;1.20;;;;;;;20.30;74.11;99302.48;1702849;81;21534;-54
2021/08/18 03:51:14;;;;;;;3.02;1.20;;;;;;;20.30;74.22;99307.09;1702277;81;21029;-54
2021/08/18 03:53:41;;;;;;;1.17;1.05;;;;;;;20.31;74.32;99314.28;1710279;81;21130;-56
2021/08/18 03:56:08;;;;;;;1.70;1.57;;;;;;;20.32;74.32;99328.31;1724245;81;21077;-55
2021/08/18 03:58:36;;;;;;;1.70;1.02;;;;;;;20.32;74.34;99336.02;1715216;81;21012;-56
2021/08/18 04:01:04;;;;;;;1.72;1.00;;;;;;;20.32;74.32;99341.48;1711895;81;21053;-54
2021/08/18 04:03:33;;;;;;;1.20;1.10;;;;;;;20.32;74.31;99336.02;1709319;82;21127;-53
2021/08/18 04:06:00;;;;;;;1.10;1.00;;;;;;;20.35;74.23;99324.80;1715006;82;21159;-57
2021/08/18 04:08:26;;;;;;;2.40;1.27;;;;;;;20.35;74.16;99319.83;1713381;82;21069;-56
2021/08/18 04:10:54;;;;;;;1.95;1.00;;;;;;;20.35;74.06;99321.20;1712203;82;21014;-57
2021/08/18 04:13:21;;;;;;;4.25;1.37;;;;;;;20.33;73.90;99319.11;1715222;82;21101;-55
2021/08/18 04:15:47;;;;;;;1.50;1.12;;;;;;;20.30;73.85;99317.52;1713921;82;21117;-54
2021/08/18 04:18:15;;;;;;;1.30;1.20;;;;;;;20.27;73.87;99297.30;1710461;82;20956;-55
2021/08/18 04:20:42;;;;;;;2.00;1.20;;;;;;;20.26;73.90;99281.05;1709934;82;21514;-53
2021/08/18 04:23:08;;;;;;;1.62;1.00;;;;;;;20.25;73.97;99266.52;1709903;81;21084;-54
2021/08/18 04:25:35;;;;;;;6.97;1.25;;;;;;;20.25;74.07;99280.69;1701886;82;21145;-53
2021/08/18 04:28:01;;;;;;;3.35;1.10;;;;;;;20.26;74.16;99276.95;1714602;82;21141;-52
2021/08/18 04:30:27;;;;;;;1.40;1.30;;;;;;;20.28;74.31;99268.11;1711032;82;22513;-53
2021/08/18 04:32:54;;;;;;;2.60;1.20;;;;;;;20.29;74.40;99263.86;1693503;82;21034;-53
2021/08/18 04:35:20;;;;;;;1.62;1.07;;;;;;;20.29;74.56;99267.10;1674035;83;21448;-54
2021/08/18 04:37:47;;;;;;;1.80;1.32;;;;;;;20.27;74.67;99271.34;1672422;83;21519;-55
2021/08/18 04:40:14;;;;;;;5.40;1.40;;;;;;;20.27;74.97;99264.51;1673727;83;21050;-56
2021/08/18 04:42:45;;;;;;;3.40;1.80;;;;;;;20.26;75.14;99272.34;1714637;82;21192;-56
2021/08/18 04:45:12;;;;;;;1.92;1.50;;;;;;;20.26;75.31;99283.78;1709843;82;20991;-55
2021/08/18 04:47:39;;;;;;;1.60;1.20;;;;;;;20.23;75.42;99286.83;1712731;82;21109;-54
2021/08/18 04:50:09;;;;;;;6.70;1.55;;;;;;;20.20;75.63;99283.01;1713372;82;21384;-56
2021/08/18 04:52:36;;;;;;;1.42;1.30;;;;;;;20.19;75.73;99290.34;1709029;82;21046;-54
2021/08/18 04:55:04;;;;;;;2.27;1.50;;;;;;;20.16;75.98;99291.98;1712210;82;21138;-56
2021/08/18 04:57:32;;;;;;;1.30;1.20;;;;;;;20.16;76.16;99297.98;1707337;82;21073;-53
2021/08/18 04:59:59;;;;;;;2.25;1.17;;;;;;;20.15;76.31;99298.99;1713074;82;21572;-56
2021/08/18 05:02:26;;;;;;;2.35;1.55;;;;;;;20.14;76.61;99306.33;1708486;82;21791;-54
2021/08/18 05:04:52;;;;;;;6.35;2.15;;;;;;;20.11;76.64;99309.34;1708620;82;21041;-54
2021/08/18 05:07:19;;;;;;;3.35;1.17;;;;;;;20.09;77.36;99307.24;1680172;83;21029;-53
2021/08/18 05:09:45;;;;;;;1.10;1.00;;;;;;;20.07;77.34;99311.15;1714387;82;20994;-54
2021/08/18 05:12:11;;;;;;;1.42;0.98;;;;;;;20.00;77.32;99310.34;1720950;82;21818;-53
2021/08/18 05:14:38;;;;;;;1.20;0.90;;;;;;;19.92;77.30;99310.70;1714512;82;21568;-54
2021/08/18 05:17:05;;;;;;;3.05;1.35;;;;;;;19.87;77.36;99314.37;1710490;82;22099;-53
2021/08/18 05:19:32;;;;;;;1.42;1.25;;;;;;;19.81;77.45;99323.16;1712255;82;21778;-57
2021/08/18 05:21:59;;;;;;;1.40;1.15;;;;;;;19.77;77.60;99328.02;1714051;82;21413;-54
2021/08/18 05:24:25;;;;;;;2.05;1.37;;;;;;;19.73;77.65;99327.96;1707471;82;20931;-54
2021/08/18 05:26:51;;;;;;;1.20;1.10;;;;;;;19.67;77.55;99332.60;1720435;82;20940;-54
2021/08/18 05:29:18;;;;;;;3.83;1.70;;;;;;;19.60;77.56;99336.41;1712469;82;20958;-54
2021/08/18 05:31:44;;;;;;;2.65;2.55;;;;;;;19.55;77.59;99333.75;1708099;82;21096;-53
2021/08/18 05:34:11;;;;;;;4.03;3.12;;;;;;;19.53;77.63;99338.48;1712780;82;20964;-53
2021/08/18 05:36:37;;;;;;;4.67;2.42;;;;;;;19.48;77.73;99340.78;1724155;81;20894;-55
2021/08/18 05:39:04;;;;;;;2.72;2.52;;;;;;;19.45;77.79;99338.28;1723701;81;20989;-54
2021/08/18 05:41:30;;;;;;;2.45;2.25;;;;;;;19.45;77.97;99343.24;1729324;81;20966;-54
2021/08/18 05:43:56;;;;;;;3.08;2.80;;;;;;;19.46;78.03;99342.74;1721682;81;21083;-56
2021/08/18 05:46:23;;;;;;;3.37;3.10;;;;;;;19.45;78.04;99337.78;1715914;81;20923;-56
2021/08/18 05:48:49;;;;;;;3.50;2.62;;;;;;;19.45;78.04;99341.88;1719764;81;20879;-54
2021/08/18 05:51:15;;;;;;;2.83;2.62;;;;;;;19.45;78.08;99343.74;1718911;81;21070;-55
2021/08/18 05:53:47;;;;;;;5.00;2.45;;;;;;;19.45;78.13;99338.28;1722318;81;20990;-54
2021/08/18 05:56:10;;;;;;;4.58;2.33;;;;;;;19.45;78.08;99338.28;1714743;81;21109;-53
2021/08/18 05:58:37;;;;;;;2.30;2.10;;;;;;;19.44;78.11;99346.11;1676703;83;21499;-54
2021/08/18 06:01:04;;;;;;;2.67;2.22;;;;;;;19.42;78.08;99344.02;1677375;83;22672;-54
2021/08/18 06:03:30;;;;;;;2.55;2.35;;;;;;;19.42;78.04;99348.10;1675972;83;21053;-53
2021/08/18 06:05:57;;;;;;;3.25;2.92;;;;;;;19.40;77.89;99359.66;1673351;83;21632;-58
2021/08/18 06:08:24;;;;;;;3.25;2.95;;;;;;;19.33;77.90;99368.91;1682127;83;21534;-58
2021/08/18 06:10:52;;;;;;;2.55;2.35;;;;;;;19.31;77.92;99378.25;1676750;83;21012;-53
2021/08/18 06:13:22;;;;;;;3.40;2.55;;;;;;;19.29;78.03;99386.58;1676028;83;21108;-56
2021/08/18 06:15:48;;;;;;;6.90;2.27;;;;;;;19.32;78.04;99388.14;1675609;83;21040;-54
2021/08/18 06:18:14;;;;;;;3.60;2.67;;;;;;;19.32;77.99;99382.19;1686621;83;21155;-54
2021/08/18 06:20:41;;;;;;;3.87;2.83;;;;;;;19.31;77.83;99364.08;1677290;83;21072;-51
2021/08/18 06:23:08;;;;;;;3.08;2.80;;;;;;;19.28;77.56;99347.51;1676684;83;21103;-55
2021/08/18 06:25:34;;;;;;;3.62;3.37;;;;;;;19.19;77.65;99346.97;1676280;83;21111;-53
2021/08/18 06:28:00;;;;;;;3.15;2.70;;;;;;;19.15;77.68;99345.50;1666708;84;21579;-52
2021/08/18 06:30:26;;;;;;;2.40;2.15;;;;;;;19.13;77.56;99347.53;1660645;84;21364;-54
2021/08/18 06:32:53;;;;;;;4.08;2.55;;;;;;;19.12;77.62;99358.58;1677758;83;21108;-53
2021/08/18 06:35:20;;;;;;;2.60;2.40;;;;;;;19.14;77.65;99383.33;1681795;83;21080;-53
2021/08/18 06:37:46;;;;;;;2.90;2.70;;;;;;;19.16;77.79;99392.75;1655050;84;21059;-54
2021/08/18 06:40:13;;;;;;;3.00;2.20;;;;;;;19.18;77.89;99398.44;1663140;84;21074;-56
2021/08/18 06:42:46;;;;;;;2.47;2.27;;;;;;;19.20;77.97;99390.99;1662610;84;21140;-54
2021/08/18 06:45:13;;;;;;;6.58;3.37;;;;;;;19.23;77.79;99377.55;1674787;84;21480;-54
2021/08/18 06:47:40;;;;;;;2.55;2.35;;;;;;;19.25;77.62;99385.97;1667492;83;21173;-55
2021/08/18 06:50:09;;;;;;;2.80;2.60;;;;;;;19.24;77.53;99380.14;1663573;84;21069;-58
2021/08/18 06:52:36;;;;;;;3.17;2.80;;;;;;;19.21;77.53;99368.66;1669453;83;21080;-56
2021/08/18 06:55:04;;;;;;;3.67;3.37;;;;;;;19.19;77.51;99352.92;1704818;82;21097;-56
2021/08/18 06:57:30;;;;;;;2.67;2.47;;;;;;;19.15;77.33;99331.86;1693830;82;21178;-57
2021/08/18 06:59:57;;;;;;;2.40;2.20;;;;;;;19.06;77.42;99344.96;1698846;82;21081;-56
2021/08/18 07:02:23;;;;;;;3.65;2.10;;;;;;;18.99;77.51;99351.97;1705689;82;21042;-57
2021/08/18 07:04:50;;;;;;;3.20;2.90;;;;;;;18.95;77.71;99344.22;1709229;82;21085;-56
2021/08/18 07:07:16;;;;;;;3.33;3.12;;;;;;;18.88;77.68;99332.47;1698245;82;21066;-55
2021/08/18 07:09:44;;;;;;;5.47;3.15;;;;;;;18.81;77.81;99327.20;1702240;82;21057;-57
2021/08/18 07:12:12;;;;;;;3.45;3.15;;;;;;;18.75;77.84;99322.80;1706024;82;21073;-57
2021/08/18 07:14:40;;;;;;;5.17;3.02;;;;;;;18.68;78.09;99324.34;1697084;82;21058;-56
2021/08/18 07:17:07;;;;;;;3.10;2.87;;;;;;;18.65;78.36;99307.75;1700879;82;21121;-56
2021/08/18 07:19:34;;;;;;;4.87;3.10;;;;;;;18.64;78.44;99313.33;1696898;82;21562;-55
2021/08/18 07:22:02;;;;;;;4.58;2.62;;;;;;;18.63;78.47;99309.73;1714212;82;21869;-56
2021/08/18 07:24:29;;;;;;;4.08;3.22;;;;;;;18.67;78.55;99308.98;1704562;82;21117;-57
2021/08/18 07:26:55;;;;;;;2.75;2.55;;;;;;;18.71;78.62;99300.91;1699856;82;21084;-56
2021/08/18 07:29:21;;;;;;;3.90;2.65;;;;;;;18.75;78.62;99305.08;1701863;82;21536;-56
2021/08/18 07:31:48;;;;;;;2.62;2.35;;;;;;;18.80;78.57;99303.66;1704182;82;21535;-57
2021/08/18 07:34:14;;;;;;;2.45;2.25;;;;;;;18.84;78.58;99309.21;1701430;82;21451;-56
2021/08/18 07:36:41;;;;;;;3.27;2.98;;;;;;;18.87;78.59;99304.86;1713981;81;21496;-55
2021/08/18 07:39:07;;;;;;;6.37;3.02;;;;;;;18.92;78.45;99310.39;1682897;83;21052;-54
2021/08/18 07:41:33;;;;;;;2.02;1.85;;;;;;;18.95;78.49;99319.67;1654854;84;21098;-54
2021/08/18 07:44:00;;;;;;;2.95;2.67;;;;;;;18.99;78.46;99318.38;1659314;84;21125;-55
2021/08/18 07:46:26;;;;;;;3.52;3.22;;;;;;;19.02;78.43;99318.11;1659057;84;21122;-55
2021/08/18 07:48:52;;;;;;;3.02;2.77;;;;;;;19.03;78.59;99322.07;1662603;84;21109;-54
2021/08/18 07:51:19;;;;;;;4.62;4.17;;;;;;;19.07;78.72;99319.91;1658579;84;21173;-54
2021/08/18 07:53:45;;;;;;;2.98;2.77;;;;;;;19.13;78.77;99313.92;1661129;84;21773;-55
2021/08/18 07:56:11;;;;;;;5.55;3.37;;;;;;;19.17;78.55;99320.81;1658105;84;21730;-55
2021/08/18 07:58:38;;;;;;;3.12;2.83;;;;;;;19.18;78.55;99314.36;1664080;84;21658;-54
2021/08/18 08:01:07;;;;;;;3.12;2.98;;;;;;;19.17;78.52;99305.81;1660257;84;21213;-55
2021/08/18 08:03:33;;;;;;;3.77;3.42;;;;;;;19.17;78.45;99305.81;1661699;84;21327;-54
2021/08/18 08:06:00;;;;;;;3.33;3.12;;;;;;;19.12;78.51;99304.02;1659694;84;21130;-54
2021/08/18 08:08:27;;;;;;;4.20;3.90;;;;;;;19.11;78.66;99299.55;1663302;84;21094;-54
2021/08/18 08:10:53;;;;;;;2.98;2.77;;;;;;;19.10;78.66;99302.78;1663572;84;21619;-54
2021/08/18 08:13:20;;;;;;;7.40;3.87;;;;;;;19.11;78.79;99306.38;1661383;84;21280;-54
2021/08/18 08:15:46;;;;;;;4.55;4.25;;;;;;;19.15;78.90;99317.36;1663212;84;21042;-55
2021/08/18 08:18:12;;;;;;;3.65;3.35;;;;;;;19.17;78.86;99316.23;1660702;84;21090;-54
2021/08/18 08:20:39;;;;;;;4.20;3.95;;;;;;;19.22;78.74;99326.20;1662667;84;20979;-55
2021/08/18 08:23:06;;;;;;;3.90;3.55;;;;;;;19.27;78.72;99332.63;1663083;84;21078;-54
2021/08/18 08:25:32;;;;;;;4.25;3.95;;;;;;;19.32;78.35;99334.92;1669433;84;20971;-56
2021/08/18 08:27:59;;;;;;;6.03;5.67;;;;;;;19.35;78.53;99335.52;1660804;84;21879;-55
2021/08/18 08:30:25;;;;;;;7.97;6.67;;;;;;;19.38;78.54;99334.39;1662693;84;20900;-55
2021/08/18 08:32:51;;;;;;;5.05;4.75;;;;;;;19.40;78.31;99337.32;1665962;84;20955;-54
2021/08/18 08:35:18;;;;;;;4.75;4.35;;;;;;;19.40;78.18;99339.19;1664718;84;21188;-55
2021/08/18 08:37:45;;;;;;;4.80;4.45;;;;;;;19.36;77.96;99340.48;1660358;84;21054;-56
2021/08/18 08:40:12;;;;;;;4.42;4.03;;;;;;;19.33;78.14;99343.48;1642263;85;21058;-55
2021/08/18 08:42:39;;;;;;;4.47;3.67;;;;;;;19.33;78.30;99345.70;1674649;83;21437;-55
2021/08/18 08:45:06;;;;;;;3.72;3.50;;;;;;;19.35;78.27;99344.21;1701740;82;20986;-56
2021/08/18 08:47:35;;;;;;;3.65;3.35;;;;;;;19.37;78.13;99347.67;1666025;83;21116;-55
2021/08/18 08:50:06;;;;;;;3.85;3.37;;;;;;;19.38;78.05;99347.54;1704144;82;21664;-54
2021/08/18 08:52:35;;;;;;;5.50;3.90;;;;;;;19.39;77.80;99351.13;1707856;82;21329;-55
2021/08/18 08:55:03;;;;;;;3.35;3.05;;;;;;;19.40;77.85;99344.14;1699048;82;21121;-55
2021/08/18 08:57:30;;;;;;;7.00;3.33;;;;;;;19.41;77.62;99337.69;1699849;82;21018;-55
2021/08/18 08:59:56;;;;;;;4.65;3.50;;;;;;;19.45;77.57;99340.52;1706907;82;21572;-54
2021/08/18 09:02:22;;;;;;;4.42;4.12;;;;;;;19.47;77.42;99340.38;1704816;82;21085;-54
2021/08/18 09:04:50;;;;;;;4.10;3.80;;;;;;;19.46;77.34;99336.78;1700585;82;21070;-55
2021/08/18 09:07:22;;;;;;;5.15;2.75;;;;;;;19.44;77.15;99333.33;1700826;82;21074;-53
2021/08/18 09:09:54;;;;;;;3.42;3.02;;;;;;;19.39;77.05;99334.26;1671437;83;21046;-54
2021/08/18 09:12:30;;;;;;;2.85;2.65;;;;;;;19.34;77.12;99337.89;1666813;83;21401;-54
2021/08/18 09:14:56;;;;;;;4.90;2.98;;;;;;;19.35;77.19;99345.58;1696990;82;21126;-55
2021/08/18 09:17:40;;;;;;;3.52;2.30;;;;;;;19.36;77.17;99334.52;1701793;82;21010;-53
2021/08/18 09:20:17;;;;;;;3.12;3.00;;;;;;;19.37;77.15;99337.63;1700056;82;21065;-54
2021/08/18 09:22:51;;;;;;;7.03;3.20;;;;;;;19.40;77.41;99341.91;1672770;83;21064;-55
2021/08/18 09:25:21;;;;;;;6.50;3.65;;;;;;;19.41;77.01;99340.41;1705740;82;21406;-53
2021/08/18 09:27:51;;;;;;;4.05;2.87;;;;;;;19.43;77.04;99343.02;1699753;82;20926;-53
2021/08/18 09:30:26;;;;;;;5.72;2.37;;;;;;;19.44;77.08;99345.61;1699138;82;21450;-55
2021/08/18 09:32:55;;;;;;;3.70;2.02;;;;;;;19.51;77.05;99350.03;1665444;83;21454;-54
2021/08/18 09:35:23;;;;;;;3.62;2.92;;;;;;;19.53;76.25;99354.36;1697929;82;21035;-55
2021/08/18 09:38:00;;;;;;;5.62;2.83;;;;;;;19.55;75.86;99353.72;1709955;81;21141;-54
2021/08/18 09:40:38;;;;;;;2.83;2.62;;;;;;;19.57;76.01;99357.15;1710728;81;21082;-53
2021/08/18 09:43:15;;;;;;;3.62;2.72;;;;;;;19.61;76.14;99374.13;1677386;83;21064;-55
2021/08/18 09:45:50;;;;;;;3.45;2.00;;;;;;;19.66;76.13;99366.37;1677786;83;21136;-54
2021/08/18 09:48:18;;;;;;;4.08;1.65;;;;;;;19.70;76.00;99373.79;1681114;83;21041;-53
2021/08/18 09:51:02;;;;;;;5.00;2.00;;;;;;;19.75;76.10;99370.98;1678985;83;21056;-54
2021/08/18 09:53:42;;;;;;;3.42;1.90;;;;;;;19.80;76.11;99370.08;1658072;84;21102;-54
2021/08/18 09:56:13;;;;;;;1.75;1.65;;;;;;;19.84;76.08;99370.14;1661169;84;21344;-54
2021/08/18 09:58:50;;;;;;;2.55;2.08;;;;;;;19.84;75.82;99366.54;1666024;84;21405;-54
2021/08/18 10:01:18;;;;;;;6.20;2.87;;;;;;;19.86;75.80;99368.64;1662769;84;21057;-53
2021/08/18 10:03:47;;;;;;;2.72;2.45;;;;;;;19.86;75.66;99372.73;1664236;84;21132;-54
2021/08/18 10:06:14;;;;;;;5.33;2.08;;;;;;;19.85;75.56;99371.87;1666212;84;20950;-55
2021/08/18 10:08:43;;;;;;;4.35;2.12;;;;;;;19.81;75.35;99375.04;1659282;84;21050;-53
2021/08/18 10:11:13;;;;;;;7.35;1.57;;;;;;;19.80;75.39;99372.81;1666946;84;21934;-53
2021/08/18 10:13:41;;;;;;;2.87;2.15;;;;;;;19.80;75.49;99376.04;1680224;83;21056;-54
2021/08/18 10:16:09;;;;;;;2.00;1.90;;;;;;;19.84;75.64;99376.09;1675963;83;21180;-54
2021/08/18 10:18:40;;;;;;;4.30;1.67;;;;;;;19.88;75.96;99367.50;1682964;83;21399;-55
2021/08/18 10:21:20;;;;;;;2.45;1.80;;;;;;;19.92;75.91;99363.96;1659885;84;20894;-55
2021/08/18 10:23:59;;;;;;;2.80;2.08;;;;;;;19.97;75.75;99362.55;1684848;83;20953;-54
2021/08/18 10:26:40;;;;;;;4.00;2.17;;;;;;;20.02;75.47;99358.01;1679647;83;21029;-55
2021/08/18 10:29:16;;;;;;;4.12;2.30;;;;;;;20.03;75.45;99350.17;1677089;83;21145;-54
2021/08/18 10:31:50;;;;;;;3.40;1.67;;;;;;;20.03;74.95;99355.64;1677643;83;21060;-54
2021/08/18 10:34:36;;;;;;;2.67;1.90;;;;;;;20.02;75.06;99352.55;1676595;83;21033;-54
2021/08/18 10:37:15;;;;;;;3.87;1.60;;;;;;;20.01;75.10;99347.58;1660287;84;21620;-53
2021/08/18 10:39:51;;;;;;;2.02;1.55;;;;;;;20.05;75.43;99352.77;1666720;84;21110;-53
2021/08/18 10:42:14;;;;;;;1.90;1.65;;;;;;;20.09;75.32;99347.36;1665626;84;22870;-54
2021/08/18 10:44:50;;;;;;;1.95;1.57;;;;;;;20.11;74.94;99346.72;1668121;84;21097;-54
2021/08/18 10:47:29;;;;;;;4.55;2.42;;;;;;;20.14;74.60;99335.52;1664120;84;21046;-53
2021/08/18 10:50:00;;;;;;;5.00;2.95;;;;;;;20.21;74.43;99334.79;1673746;84;21073;-52
2021/08/18 10:52:38;;;;;;;3.20;2.92;;;;;;;20.23;73.51;99334.65;1669515;84;21082;-53
2021/08/18 10:55:13;;;;;;;2.62;2.42;;;;;;;20.15;73.32;99329.05;1667499;84;21567;-53
2021/08/18 10:57:50;;;;;;;2.58;1.98;;;;;;;20.12;73.59;99326.09;1670054;84;21118;-53
2021/08/18 11:00:22;;;;;;;2.87;2.37;;;;;;;20.16;73.82;99317.11;1705475;82;21531;-54
2021/08/18 11:03:05;;;;;;;2.40;2.10;;;;;;;20.21;73.75;99315.66;1707480;82;20978;-54
2021/08/18 11:05:45;;;;;;;3.75;1.85;;;;;;;20.26;73.47;99316.08;1673538;84;21108;-53
2021/08/18 11:08:30;;;;;;;1.67;1.57;;;;;;;20.26;72.91;99312.48;1699782;82;21115;-54
2021/08/18 11:11:06;;;;;;;3.62;2.25;;;;;;;20.27;72.78;99318.30;1704152;82;20926;-53
2021/08/18 11:13:53;;;;;;;2.67;2.47;;;;;;;20.30;72.70;99316.16;1670955;83;21361;-54
2021/08/18 11:16:31;;;;;;;2.45;2.25;;;;;;;20.34;72.63;99314.00;1671879;83;21006;-54
2021/08/18 11:19:00;;;;;;;1.60;1.30;;;;;;;20.36;72.22;99311.49;1673016;83;20958;-54
2021/08/18 11:21:37;;;;;;;1.98;1.70;;;;;;;20.33;71.68;99299.44;1668046;83;21409;-55
2021/08/18 11:24:13;;;;;;;1.98;1.32;;;;;;;20.25;70.94;99293.84;1704686;82;21064;-55
2021/08/18 11:26:43;;;;;;;2.92;1.57;;;;;;;20.19;71.07;99294.44;1710479;82;21527;-54
2021/08/18 11:29:12;;;;;;;1.72;1.60;;;;;;;20.21;71.44;99296.53;1708894;82;20951;-54
2021/08/18 11:31:49;;;;;;;1.60;1.50;;;;;;;20.32;71.47;99282.72;1670508;82;20919;-54
2021/08/18 11:34:28;;;;;;;2.17;1.45;;;;;;;20.40;70.80;99290.21;1670598;83;21090;-54
2021/08/18 11:37:09;;;;;;;2.83;1.80;;;;;;;20.48;70.06;99285.37;1674045;83;20937;-53
2021/08/18 11:39:39;;;;;;;2.27;1.55;;;;;;;20.52;69.92;99284.91;1667472;83;20938;-54
2021/08/18 11:42:14;;;;;;;1.70;1.40;;;;;;;20.55;69.50;99281.03;1667135;83;20930;-53
2021/08/18 11:44:42;;;;;;;6.62;1.57;;;;;;;20.61;69.61;99277.69;1705440;82;20973;-55